sensor_id;sensor_type;location;lat;lon;timestamp;pressure;altitude;pressure_sealevel;temperature;humidity
50684;BME280;36654;45.042;38.994;2023-04-03T00:00:29;100636.06;;;12.81;39.76
50684;BME280;36654;45.042;38.994;2023-04-03T00:02:54;100626.31;;;12.77;39.46
50684;BME280;36654;45.042;38.994;2023-04-03T00:05:20;100631.63;;;12.80;39.57
50684;BME280;36654;45.042;38.994;2023-04-03T00:07:46;100595.25;;;12.60;39.68
50684;BME280;36654;45.042;38.994;2023-04-03T00:10:12;100625.44;;;12.81;39.75
50684;BME280;36654;45.042;38.994;2023-04-03T00:12:37;100627.19;;;12.85;39.72
50684;BME280;36654;45.042;38.994;2023-04-03T00:15:03;100615.66;;;12.80;39.57
50684;BME280;36654;45.042;38.994;2023-04-03T00:17:29;100600.59;;;12.66;39.91
50684;BME280;36654;45.042;38.994;2023-04-03T00:19:54;100627.19;;;12.82;40.02
50684;BME280;36654;45.042;38.994;2023-04-03T00:22:20;100626.31;;;12.86;40.13
50684;BME280;36654;45.042;38.994;2023-04-03T00:24:45;100595.28;;;12.63;39.97
50684;BME280;36654;45.042;38.994;2023-04-03T00:27:11;100628.06;;;12.87;39.76
50684;BME280;36654;45.042;38.994;2023-04-03T00:29:37;100634.28;;;12.89;40.02
50684;BME280;36654;45.042;38.994;2023-04-03T00:32:02;100595.25;;;12.65;40.01
50684;BME280;36654;45.042;38.994;2023-04-03T00:34:28;100599.72;;;12.66;40.06
50684;BME280;36654;45.042;38.994;2023-04-03T00:36:54;100581.06;;;12.55;39.92
50684;BME280;36654;45.042;38.994;2023-04-03T00:39:19;100637.81;;;12.82;39.86
50684;BME280;36654;45.042;38.994;2023-04-03T00:41:45;100636.03;;;12.78;39.71
50684;BME280;36654;45.042;38.994;2023-04-03T00:47:04;100615.66;;;12.80;39.77
50684;BME280;36654;45.042;38.994;2023-04-03T00:49:31;100628.06;;;12.84;39.71
50684;BME280;36654;45.042;38.994;2023-04-03T00:51:57;100595.25;;;12.69;39.56
50684;BME280;36654;45.042;38.994;2023-04-03T00:54:25;100567.78;;;12.57;39.45
50684;BME280;36654;45.042;38.994;2023-04-03T00:56:51;100628.97;;;12.89;39.38
50684;BME280;36654;45.042;38.994;2023-04-03T00:59:32;100620.09;;;12.87;39.49
50684;BME280;36654;45.042;38.994;2023-04-03T01:01:59;100625.44;;;12.93;39.61
50684;BME280;36654;45.042;38.994;2023-04-03T01:04:34;100626.31;;;12.90;39.51
50684;BME280;36654;45.042;38.994;2023-04-03T01:07:12;100623.63;;;12.95;39.56
50684;BME280;36654;45.042;38.994;2023-04-03T01:09:40;100620.09;;;12.90;39.75
50684;BME280;36654;45.042;38.994;2023-04-03T01:12:26;100589.06;;;12.78;39.88
50684;BME280;36654;45.042;38.994;2023-04-03T01:15:06;100575.75;;;12.77;39.76
50684;BME280;36654;45.042;38.994;2023-04-03T01:17:46;100620.09;;;12.93;39.92
50684;BME280;36654;45.042;38.994;2023-04-03T01:25:47;100618.31;;;12.81;40.22
50684;BME280;36654;45.042;38.994;2023-04-03T01:28:26;100600.59;;;12.76;40.09
50684;BME280;36654;45.042;38.994;2023-04-03T01:33:23;100565.09;;;12.55;40.20
50684;BME280;36654;45.042;38.994;2023-04-03T01:35:49;100602.38;;;12.73;39.97
50684;BME280;36654;45.042;38.994;2023-04-03T01:38:15;100558.00;;;12.48;39.76
50684;BME280;36654;45.042;38.994;2023-04-03T01:40:41;100605.91;;;12.76;39.63
50684;BME280;36654;45.042;38.994;2023-04-03T01:43:08;100579.28;;;12.68;39.71
50684;BME280;36654;45.042;38.994;2023-04-03T01:45:33;100606.81;;;12.76;39.84
50684;BME280;36654;45.042;38.994;2023-04-03T01:47:59;100612.09;;;12.82;40.18
50684;BME280;36654;45.042;38.994;2023-04-03T01:50:25;100599.72;;;12.78;40.70
50684;BME280;36654;45.042;38.994;2023-04-03T01:52:50;100601.47;;;12.84;41.20
50684;BME280;36654;45.042;38.994;2023-04-03T01:55:16;100550.06;;;12.59;42.39
50684;BME280;36654;45.042;38.994;2023-04-03T01:57:41;100582.84;;;12.78;43.24
50684;BME280;36654;45.042;38.994;2023-04-03T02:00:08;100605.91;;;12.83;44.37
50684;BME280;36654;45.042;38.994;2023-04-03T02:02:33;100604.16;;;12.81;45.01
50684;BME280;36654;45.042;38.994;2023-04-03T02:04:59;100587.28;;;12.65;45.25
50684;BME280;36654;45.042;38.994;2023-04-03T02:07:24;100602.38;;;12.70;46.00
50684;BME280;36654;45.042;38.994;2023-04-03T02:09:50;100608.56;;;12.69;46.96
50684;BME280;36654;45.042;38.994;2023-04-03T02:12:16;100624.53;;;12.76;47.36
50684;BME280;36654;45.042;38.994;2023-04-03T02:14:41;100604.13;;;12.71;48.54
50684;BME280;36654;45.042;38.994;2023-04-03T02:17:07;100620.09;;;12.71;48.89
50684;BME280;36654;45.042;38.994;2023-04-03T02:19:36;100572.22;;;12.44;49.53
50684;BME280;36654;45.042;38.994;2023-04-03T02:22:03;100610.31;;;12.60;50.48
50684;BME280;36654;45.042;38.994;2023-04-03T02:24:29;100621.84;;;12.57;50.86
50684;BME280;36654;45.042;38.994;2023-04-03T02:26:55;100626.25;;;12.55;52.42
50684;BME280;36654;45.042;38.994;2023-04-03T02:29:20;100617.38;;;12.45;52.82
50684;BME280;36654;45.042;38.994;2023-04-03T02:31:46;100628.94;;;12.52;53.47
50684;BME280;36654;45.042;38.994;2023-04-03T02:34:12;100640.47;;;12.54;53.86
50684;BME280;36654;45.042;38.994;2023-04-03T02:36:37;100640.44;;;12.48;54.86
50684;BME280;36654;45.042;38.994;2023-04-03T02:39:03;100634.25;;;12.49;54.95
50684;BME280;36654;45.042;38.994;2023-04-03T02:41:29;100639.56;;;12.49;56.13
50684;BME280;36654;45.042;38.994;2023-04-03T02:44:01;100644.84;;;12.43;56.88
50684;BME280;36654;45.042;38.994;2023-04-03T02:46:27;100637.78;;;12.36;57.02
50684;BME280;36654;45.042;38.994;2023-04-03T02:48:52;100640.41;;;12.33;57.91
50684;BME280;36654;45.042;38.994;2023-04-03T02:51:18;100645.72;;;12.29;58.95
50684;BME280;36654;45.042;38.994;2023-04-03T02:53:43;100648.34;;;12.16;60.12
50684;BME280;36654;45.042;38.994;2023-04-03T02:56:09;100664.28;;;12.17;61.22
50684;BME280;36654;45.042;38.994;2023-04-03T02:58:35;100666.91;;;12.06;62.92
50684;BME280;36654;45.042;38.994;2023-04-03T03:01:01;100674.84;;;11.99;63.68
50684;BME280;36654;45.042;38.994;2023-04-03T03:03:27;100675.69;;;11.92;65.33
50684;BME280;36654;45.042;38.994;2023-04-03T03:06:09;100687.19;;;11.89;65.73
50684;BME280;36654;45.042;38.994;2023-04-03T03:08:36;100672.94;;;11.76;66.63
50684;BME280;36654;45.042;38.994;2023-04-03T03:11:03;100683.56;;;11.79;67.71
50684;BME280;36654;45.042;38.994;2023-04-03T03:13:29;100637.38;;;11.53;68.64
50684;BME280;36654;45.042;38.994;2023-04-03T03:15:55;100685.28;;;11.73;69.32
50684;BME280;36654;45.042;38.994;2023-04-03T03:18:21;100683.50;;;11.67;70.07
50684;BME280;36654;45.042;38.994;2023-04-03T03:20:54;100680.84;;;11.70;70.11
50684;BME280;36654;45.042;38.994;2023-04-03T03:23:21;100671.13;;;11.69;70.87
50684;BME280;36654;45.042;38.994;2023-04-03T03:25:47;100637.34;;;11.43;71.51
50684;BME280;36654;45.042;38.994;2023-04-03T03:28:12;100682.59;;;11.68;71.52
50684;BME280;36654;45.042;38.994;2023-04-03T03:30:38;100679.97;;;11.66;72.04
50684;BME280;36654;45.042;38.994;2023-04-03T03:33:04;100699.44;;;11.70;72.56
50684;BME280;36654;45.042;38.994;2023-04-03T03:35:29;100686.97;;;11.57;73.03
50684;BME280;36654;45.042;38.994;2023-04-03T03:37:55;100704.72;;;11.61;73.83
50684;BME280;36654;45.042;38.994;2023-04-03T03:40:21;100689.59;;;11.49;74.85
50684;BME280;36654;45.042;38.994;2023-04-03T03:42:46;100686.84;;;11.40;75.53
50684;BME280;36654;45.042;38.994;2023-04-03T03:45:12;100642.53;;;11.25;75.83
50684;BME280;36654;45.042;38.994;2023-04-03T03:47:37;100693.09;;;11.43;76.19
50684;BME280;36654;45.042;38.994;2023-04-03T03:50:03;100717.06;;;11.56;76.45
50684;BME280;36654;45.042;38.994;2023-04-03T03:52:29;100724.16;;;11.57;76.77
50684;BME280;36654;45.042;38.994;2023-04-03T03:54:55;100705.53;;;11.51;76.82
50684;BME280;36654;45.042;38.994;2023-04-03T03:57:21;100721.50;;;11.57;77.53
50684;BME280;36654;45.042;38.994;2023-04-03T03:59:47;100727.72;;;11.59;77.95
50684;BME280;36654;45.042;38.994;2023-04-03T04:02:14;100717.06;;;11.57;77.73
50684;BME280;36654;45.042;38.994;2023-04-03T04:04:40;100711.78;;;11.56;78.38
50684;BME280;36654;45.042;38.994;2023-04-03T04:07:06;100728.59;;;11.62;78.38
50684;BME280;36654;45.042;38.994;2023-04-03T04:09:31;100741.00;;;11.65;78.44
50684;BME280;36654;45.042;38.994;2023-04-03T04:11:57;100702.81;;;11.41;78.55
50684;BME280;36654;45.042;38.994;2023-04-03T04:14:23;100727.75;;;11.66;78.18
50684;BME280;36654;45.042;38.994;2023-04-03T04:16:48;100733.03;;;11.62;78.20
50684;BME280;36654;45.042;38.994;2023-04-03T04:19:14;100742.81;;;11.68;78.00
50684;BME280;36654;45.042;38.994;2023-04-03T04:21:40;100740.16;;;11.68;77.98
50684;BME280;36654;45.042;38.994;2023-04-03T04:24:07;100740.16;;;11.69;78.10
50684;BME280;36654;45.042;38.994;2023-04-03T04:26:33;100733.03;;;11.65;78.32
50684;BME280;36654;45.042;38.994;2023-04-03T04:29:00;100752.53;;;11.67;78.34
50684;BME280;36654;45.042;38.994;2023-04-03T04:31:25;100743.66;;;11.65;78.55
50684;BME280;36654;45.042;38.994;2023-04-03T04:33:52;100734.81;;;11.61;78.59
50684;BME280;36654;45.042;38.994;2023-04-03T04:36:17;100757.88;;;11.70;78.66
50684;BME280;36654;45.042;38.994;2023-04-03T04:38:43;100760.53;;;11.72;78.71
50684;BME280;36654;45.042;38.994;2023-04-03T04:41:09;100756.06;;;11.68;78.77
50684;BME280;36654;45.042;38.994;2023-04-03T04:43:35;100751.66;;;11.70;78.92
50684;BME280;36654;45.042;38.994;2023-04-03T04:46:05;100756.13;;;11.72;79.09
50684;BME280;36654;45.042;38.994;2023-04-03T04:48:31;100749.03;;;11.71;79.02
50684;BME280;36654;45.042;38.994;2023-04-03T04:50:57;100740.16;;;11.66;79.01
50684;BME280;36654;45.042;38.994;2023-04-03T04:53:23;100675.22;;;11.22;79.07
50684;BME280;36654;45.042;38.994;2023-04-03T04:55:48;100754.31;;;11.63;79.15
50684;BME280;36654;45.042;38.994;2023-04-03T04:58:14;100764.06;;;11.69;79.32
50684;BME280;36654;45.042;38.994;2023-04-03T05:00:40;100759.66;;;11.71;79.32
50684;BME280;36654;45.042;38.994;2023-04-03T05:03:06;100752.53;;;11.64;79.65
50684;BME280;36654;45.042;38.994;2023-04-03T05:05:31;100751.63;;;11.62;79.60
50684;BME280;36654;45.042;38.994;2023-04-03T05:07:57;100755.16;;;11.59;79.74
50684;BME280;36654;45.042;38.994;2023-04-03T05:10:23;100756.94;;;11.65;79.63
50684;BME280;36654;45.042;38.994;2023-04-03T05:12:48;100751.63;;;11.62;79.77
50684;BME280;36654;45.042;38.994;2023-04-03T05:15:14;100764.06;;;11.69;79.95
50684;BME280;36654;45.042;38.994;2023-04-03T05:17:40;100748.97;;;11.65;79.83
50684;BME280;36654;45.042;38.994;2023-04-03T05:20:06;100757.00;;;11.71;80.08
50684;BME280;36654;45.042;38.994;2023-04-03T05:22:32;100766.81;;;11.81;79.98
50684;BME280;36654;45.042;38.994;2023-04-03T05:24:57;100762.34;;;11.74;80.03
50684;BME280;36654;45.042;38.994;2023-04-03T05:27:23;100775.72;;;11.86;80.14
50684;BME280;36654;45.042;38.994;2023-04-03T05:29:50;100769.47;;;11.84;79.82
50684;BME280;36654;45.042;38.994;2023-04-03T05:32:17;100770.41;;;11.86;80.08
50684;BME280;36654;45.042;38.994;2023-04-03T05:34:43;100779.31;;;11.92;80.16
50684;BME280;36654;45.042;38.994;2023-04-03T05:37:09;100765.16;;;11.96;80.02
50684;BME280;36654;45.042;38.994;2023-04-03T05:39:34;100775.75;;;11.91;80.08
50684;BME280;36654;45.042;38.994;2023-04-03T05:42:00;100763.28;;;11.85;80.06
50684;BME280;36654;45.042;38.994;2023-04-03T05:44:26;100770.47;;;12.00;80.12
50684;BME280;36654;45.042;38.994;2023-04-03T05:46:51;100774.06;;;12.07;79.79
50684;BME280;36654;45.042;38.994;2023-04-03T05:49:17;100782.06;;;12.10;79.88
50684;BME280;36654;45.042;38.994;2023-04-03T05:51:43;100795.44;;;12.21;79.67
50684;BME280;36654;45.042;38.994;2023-04-03T05:54:20;100785.72;;;12.26;79.43
50684;BME280;36654;45.042;38.994;2023-04-03T05:56:50;100801.66;;;12.27;79.29
50684;BME280;36654;45.042;38.994;2023-04-03T05:59:16;100806.06;;;12.27;79.18
50684;BME280;36654;45.042;38.994;2023-04-03T06:01:42;100747.50;;;12.04;79.47
50684;BME280;36654;45.042;38.994;2023-04-03T06:04:08;100807.00;;;12.30;79.41
50684;BME280;36654;45.042;38.994;2023-04-03T06:09:12;100800.78;;;12.32;79.03
50684;BME280;36654;45.042;38.994;2023-04-03T06:11:38;100814.06;;;12.28;79.08
50684;BME280;36654;45.042;38.994;2023-04-03T06:14:04;100815.81;;;12.28;78.91
50684;BME280;36654;45.042;38.994;2023-04-03T06:16:30;100814.06;;;12.28;79.09
50684;BME280;36654;45.042;38.994;2023-04-03T06:18:55;100787.41;;;12.12;79.04
50684;BME280;36654;45.042;38.994;2023-04-03T06:21:21;100810.50;;;12.25;78.95
50684;BME280;36654;45.042;38.994;2023-04-03T06:23:47;100775.81;;;12.05;79.04
50684;BME280;36654;45.042;38.994;2023-04-03T06:26:12;100815.81;;;12.28;79.10
50684;BME280;36654;45.042;38.994;2023-04-03T06:28:38;100794.56;;;12.23;79.20
50684;BME280;36654;45.042;38.994;2023-04-03T06:31:03;100799.84;;;12.22;79.18
50684;BME280;36654;45.042;38.994;2023-04-03T06:33:29;100822.06;;;12.38;79.14
50684;BME280;36654;45.042;38.994;2023-04-03T06:35:57;100838.06;;;12.42;78.96
50684;BME280;36654;45.042;38.994;2023-04-03T06:38:23;100799.84;;;12.22;79.30
50684;BME280;36654;45.042;38.994;2023-04-03T06:40:49;100831.84;;;12.42;78.71
50684;BME280;36654;45.042;38.994;2023-04-03T06:43:14;100834.50;;;12.40;78.75
50684;BME280;36654;45.042;38.994;2023-04-03T06:45:40;100814.97;;;12.30;78.65
50684;BME280;36654;45.042;38.994;2023-04-03T06:48:05;100816.75;;;12.35;78.97
50684;BME280;36654;45.042;38.994;2023-04-03T06:50:31;100822.94;;;12.35;79.05
50684;BME280;36654;45.042;38.994;2023-04-03T06:52:57;100825.63;;;12.34;78.89
50684;BME280;36654;45.042;38.994;2023-04-03T06:55:22;100805.19;;;12.25;78.99
50684;BME280;36654;45.042;38.994;2023-04-03T06:57:48;100822.03;;;12.30;79.20
50684;BME280;36654;45.042;38.994;2023-04-03T07:00:14;100790.06;;;12.12;78.98
50684;BME280;36654;45.042;38.994;2023-04-03T07:02:41;100815.84;;;12.29;79.16
50684;BME280;36654;45.042;38.994;2023-04-03T07:05:07;100818.50;;;12.26;78.83
50684;BME280;36654;45.042;38.994;2023-04-03T07:07:32;100781.09;;;11.96;78.78
50684;BME280;36654;45.042;38.994;2023-04-03T07:09:59;100832.66;;;12.27;79.04
50684;BME280;36654;45.042;38.994;2023-04-03T07:12:25;100843.31;;;12.28;79.38
50684;BME280;36654;45.042;38.994;2023-04-03T07:14:51;100836.19;;;12.27;79.32
50684;BME280;36654;45.042;38.994;2023-04-03T07:17:17;100841.50;;;12.24;79.14
50684;BME280;36654;45.042;38.994;2023-04-03T07:19:43;100809.53;;;12.12;79.18
50684;BME280;36654;45.042;38.994;2023-04-03T07:22:08;100833.50;;;12.18;79.54
50684;BME280;36654;45.042;38.994;2023-04-03T07:24:36;100818.34;;;12.05;79.34
50684;BME280;36654;45.042;38.994;2023-04-03T07:27:02;100836.16;;;12.18;79.14
50684;BME280;36654;45.042;38.994;2023-04-03T07:29:29;100790.84;;;11.97;79.16
50684;BME280;36654;45.042;38.994;2023-04-03T07:31:55;100828.19;;;12.18;78.92
50684;BME280;36654;45.042;38.994;2023-04-03T07:34:21;100789.06;;;11.97;78.99
50684;BME280;36654;45.042;38.994;2023-04-03T07:36:47;100843.28;;;12.27;79.06
50684;BME280;36654;45.042;38.994;2023-04-03T07:39:12;100797.09;;;12.08;78.96
50684;BME280;36654;45.042;38.994;2023-04-03T07:41:38;100850.44;;;12.36;78.91
50684;BME280;36654;45.042;38.994;2023-04-03T07:44:04;100839.78;;;12.33;78.75
50684;BME280;36654;45.042;38.994;2023-04-03T07:46:31;100843.31;;;12.32;78.20
50684;BME280;36654;45.042;38.994;2023-04-03T07:48:57;100855.72;;;12.33;78.05
50684;BME280;36654;45.042;38.994;2023-04-03T07:51:23;100859.28;;;12.32;77.91
50684;BME280;36654;45.042;38.994;2023-04-03T07:53:49;100805.94;;;12.01;77.92
50684;BME280;36654;45.042;38.994;2023-04-03T07:56:16;100802.41;;;12.05;77.98
50684;BME280;36654;45.042;38.994;2023-04-03T07:58:42;100837.09;;;12.23;78.02
50684;BME280;36654;45.042;38.994;2023-04-03T08:01:08;100810.44;;;12.11;77.89
50684;BME280;36654;45.042;38.994;2023-04-03T08:03:33;100855.69;;;12.28;77.90
50684;BME280;36654;45.042;38.994;2023-04-03T08:06:04;100856.59;;;12.28;78.04
50684;BME280;36654;45.042;38.994;2023-04-03T08:08:30;100811.25;;;12.04;78.28
50684;BME280;36654;45.042;38.994;2023-04-03T08:10:59;100866.34;;;12.33;78.37
50684;BME280;36654;45.042;38.994;2023-04-03T08:13:25;100841.50;;;12.21;78.32
50684;BME280;36654;45.042;38.994;2023-04-03T08:15:51;100858.44;;;12.39;78.14
50684;BME280;36654;45.042;38.994;2023-04-03T08:18:17;100857.56;;;12.41;77.93
50684;BME280;36654;45.042;38.994;2023-04-03T08:20:46;100822.03;;;12.28;77.82
50684;BME280;36654;45.042;38.994;2023-04-03T08:23:12;100825.66;;;12.43;77.43
50684;BME280;36654;45.042;38.994;2023-04-03T08:25:40;100848.78;;;12.62;77.37
50684;BME280;36654;45.042;38.994;2023-04-03T08:28:06;100847.94;;;12.63;77.27
50684;BME280;36654;45.042;38.994;2023-04-03T08:30:32;100820.38;;;12.52;77.10
50684;BME280;36654;45.042;38.994;2023-04-03T08:33:00;100809.75;;;12.50;76.91
50684;BME280;36654;45.042;38.994;2023-04-03T08:35:27;100852.41;;;12.77;76.75
50684;BME280;36654;45.042;38.994;2023-04-03T08:37:52;100839.09;;;12.70;76.78
50684;BME280;36654;45.042;38.994;2023-04-03T08:40:18;100863.94;;;12.82;76.72
50684;BME280;36654;45.042;38.994;2023-04-03T08:45:21;100863.06;;;12.81;76.40
50684;BME280;36654;45.042;38.994;2023-04-03T08:48:00;100830.16;;;12.53;76.37
50684;BME280;36654;45.042;38.994;2023-04-03T08:50:33;100863.91;;;12.72;76.28
50684;BME280;36654;45.042;38.994;2023-04-03T08:53:02;100816.81;;;12.44;76.48
50684;BME280;36654;45.042;38.994;2023-04-03T08:55:34;100845.22;;;12.57;76.44
50684;BME280;36654;45.042;38.994;2023-04-03T08:58:15;100823.88;;;12.45;76.42
50684;BME280;36654;45.042;38.994;2023-04-03T09:00:49;100863.00;;;12.67;76.61
50684;BME280;36654;45.042;38.994;2023-04-03T09:03:17;100860.34;;;12.69;76.61
50684;BME280;36654;45.042;38.994;2023-04-03T09:08:28;100855.97;;;12.76;76.53
50684;BME280;36654;45.042;38.994;2023-04-03T09:11:21;100831.06;;;12.64;76.46
50684;BME280;36654;45.042;38.994;2023-04-03T09:14:03;100878.16;;;12.84;76.39
50684;BME280;36654;45.042;38.994;2023-04-03T09:22:11;100850.59;;;12.72;75.84
50684;BME280;36654;45.042;38.994;2023-04-03T09:24:39;100867.50;;;12.85;75.69
50684;BME280;36654;45.042;38.994;2023-04-03T09:27:08;100869.28;;;12.82;75.81
50684;BME280;36654;45.042;38.994;2023-04-03T09:29:39;100866.63;;;12.88;75.72
50684;BME280;36654;45.042;38.994;2023-04-03T09:32:30;100866.66;;;12.97;75.58
50684;BME280;36654;45.042;38.994;2023-04-03T09:35:00;100823.16;;;12.77;75.32
50684;BME280;36654;45.042;38.994;2023-04-03T09:37:43;100878.25;;;13.17;74.84
50684;BME280;36654;45.042;38.994;2023-04-03T09:42:51;100870.38;;;13.57;73.89
50684;BME280;36654;45.042;38.994;2023-04-03T09:48:06;100881.06;;;13.94;72.45
50684;BME280;36654;45.042;38.994;2023-04-03T09:50:34;100892.59;;;14.04;71.76
50684;BME280;36654;45.042;38.994;2023-04-03T09:53:06;100887.28;;;14.13;71.24
50684;BME280;36654;45.042;38.994;2023-04-03T09:55:42;100888.13;;;14.20;70.48
50684;BME280;36654;45.042;38.994;2023-04-03T09:58:25;100891.72;;;14.16;70.28
50684;BME280;36654;45.042;38.994;2023-04-03T10:00:57;100905.03;;;14.16;70.25
50684;BME280;36654;45.042;38.994;2023-04-03T10:03:30;100901.47;;;14.17;70.27
50684;BME280;36654;45.042;38.994;2023-04-03T10:05:58;100899.69;;;14.14;70.34
50684;BME280;36654;45.042;38.994;2023-04-03T10:08:34;100897.91;;;14.19;70.04
50684;BME280;36654;45.042;38.994;2023-04-03T10:11:14;100887.22;;;14.35;69.74
50684;BME280;36654;45.042;38.994;2023-04-03T10:13:57;100886.34;;;14.43;69.40
50684;BME280;36654;45.042;38.994;2023-04-03T10:16:34;100886.31;;;14.53;69.20
50684;BME280;36654;45.042;38.994;2023-04-03T10:19:29;100849.00;;;14.40;69.07
50684;BME280;36654;45.042;38.994;2023-04-03T10:22:21;100902.34;;;14.54;68.81
50684;BME280;36654;45.042;38.994;2023-04-03T10:25:04;100887.22;;;14.45;68.68
50684;BME280;36654;45.042;38.994;2023-04-03T10:27:52;100897.88;;;14.47;68.83
50684;BME280;36654;45.042;38.994;2023-04-03T10:30:56;100898.78;;;14.51;68.88
50684;BME280;36654;45.042;38.994;2023-04-03T10:33:47;100910.34;;;14.60;68.75
50684;BME280;36654;45.042;38.994;2023-04-03T10:44:48;100907.63;;;14.65;68.60
50684;BME280;36654;45.042;38.994;2023-04-03T10:50:29;100924.50;;;14.76;68.55
50684;BME280;36654;45.042;38.994;2023-04-03T10:56:01;100911.13;;;14.92;68.45
50684;BME280;36654;45.042;38.994;2023-04-03T10:58:36;100927.09;;;15.04;68.13
50684;BME280;36654;45.042;38.994;2023-04-03T11:01:16;100906.59;;;15.07;68.02
50684;BME280;36654;45.042;38.994;2023-04-03T11:03:50;100898.59;;;15.06;67.91
50684;BME280;36654;45.042;38.994;2023-04-03T11:06:20;100916.38;;;15.13;67.92
50684;BME280;36654;45.042;38.994;2023-04-03T11:09:32;100914.56;;;15.18;66.96
50684;BME280;36654;45.042;38.994;2023-04-03T11:11:41;100920.81;;;15.11;66.36
50684;BME280;36654;45.042;38.994;2023-04-03T11:14:17;100915.53;;;15.03;66.19
50684;BME280;36654;45.042;38.994;2023-04-03T11:16:53;100912.00;;;14.95;66.10
50684;BME280;36654;45.042;38.994;2023-04-03T11:22:26;100918.22;;;14.99;66.03
50684;BME280;36654;45.042;38.994;2023-04-03T11:25:03;100923.53;;;15.08;66.39
50684;BME280;36654;45.042;38.994;2023-04-03T11:27:37;100928.78;;;15.23;66.22
50684;BME280;36654;45.042;38.994;2023-04-03T11:30:09;100937.63;;;15.36;66.01
50684;BME280;36654;45.042;38.994;2023-04-03T11:35:25;100917.03;;;15.53;65.00
50684;BME280;36654;45.042;38.994;2023-04-03T11:37:52;100913.47;;;15.51;64.92
50684;BME280;36654;45.042;38.994;2023-04-03T11:40:25;100923.22;;;15.63;64.84
50684;BME280;36654;45.042;38.994;2023-04-03T11:45:35;100916.06;;;15.65;64.28
50684;BME280;36654;45.042;38.994;2023-04-03T11:50:54;100885.91;;;15.48;64.23
50684;BME280;36654;45.042;38.994;2023-04-03T11:55:56;100923.06;;;15.85;63.70
50684;BME280;36654;45.042;38.994;2023-04-03T11:58:31;100873.28;;;15.67;63.63
50684;BME280;36654;45.042;38.994;2023-04-03T12:00:58;100921.22;;;15.96;63.25
50684;BME280;36654;45.042;38.994;2023-04-03T12:19:27;100920.44;;;15.83;62.09
50684;BME280;36654;45.042;38.994;2023-04-03T12:24:30;100939.13;;;15.82;62.28
50684;BME280;36654;45.042;38.994;2023-04-03T12:32:06;100934.63;;;15.90;62.11
50684;BME280;36654;45.042;38.994;2023-04-03T12:41:00;100948.94;;;15.81;61.63
50684;BME280;36654;45.042;38.994;2023-04-03T12:46:11;100942.78;;;15.62;62.13
50684;BME280;36654;45.042;38.994;2023-04-03T12:51:21;100951.72;;;15.61;61.94
50684;BME280;36654;45.042;38.994;2023-04-03T12:53:52;100949.06;;;15.61;61.06
50684;BME280;36654;45.042;38.994;2023-04-03T12:56:28;100953.50;;;15.65;61.02
50684;BME280;36654;45.042;38.994;2023-04-03T12:59:12;100946.34;;;15.64;60.60
50684;BME280;36654;45.042;38.994;2023-04-03T13:01:39;100929.47;;;15.59;60.43
50684;BME280;36654;45.042;38.994;2023-04-03T13:04:05;100942.75;;;15.78;60.08
50684;BME280;36654;45.042;38.994;2023-04-03T13:06:36;100944.47;;;15.85;59.78
50684;BME280;36654;45.042;38.994;2023-04-03T13:09:03;100939.06;;;15.94;59.41
50684;BME280;36654;45.042;38.994;2023-04-03T13:11:38;100883.97;;;15.71;59.10
50684;BME280;36654;45.042;38.994;2023-04-03T13:14:17;100917.63;;;15.97;58.08
50684;BME280;36654;45.042;38.994;2023-04-03T13:16:58;100936.28;;;16.06;57.56
50684;BME280;36654;45.042;38.994;2023-04-03T13:19:26;100937.13;;;16.11;57.32
50684;BME280;36654;45.042;38.994;2023-04-03T13:24:23;100926.53;;;16.01;56.92
50684;BME280;36654;45.042;38.994;2023-04-03T13:26:51;100932.78;;;15.98;57.10
50684;BME280;36654;45.042;38.994;2023-04-03T13:29:48;100949.59;;;16.12;56.85
50684;BME280;36654;45.042;38.994;2023-04-03T13:32:20;100962.13;;;16.10;56.23
50684;BME280;36654;45.042;38.994;2023-04-03T13:34:46;100953.25;;;16.05;56.44
50684;BME280;36654;45.042;38.994;2023-04-03T13:37:27;100943.53;;;15.95;56.73
50684;BME280;36654;45.042;38.994;2023-04-03T13:42:37;100961.28;;;16.01;57.68
50684;BME280;36654;45.042;38.994;2023-04-03T13:47:44;100985.34;;;16.05;57.90
50684;BME280;36654;45.042;38.994;2023-04-03T13:50:24;100996.84;;;16.13;57.85
50684;BME280;36654;45.042;38.994;2023-04-03T13:53:01;100998.66;;;16.11;57.80
50684;BME280;36654;45.042;38.994;2023-04-03T13:55:30;100986.28;;;15.96;58.35
50684;BME280;36654;45.042;38.994;2023-04-03T13:58:03;100995.28;;;15.83;58.50
50684;BME280;36654;45.042;38.994;2023-04-03T14:03:34;100996.25;;;15.65;58.33
50684;BME280;36654;45.042;38.994;2023-04-03T14:06:05;100975.81;;;15.53;58.19
50684;BME280;36654;45.042;38.994;2023-04-03T14:08:32;100980.22;;;15.62;58.77
50684;BME280;36654;45.042;38.994;2023-04-03T14:10:57;100952.69;;;15.52;58.42
50684;BME280;36654;45.042;38.994;2023-04-03T14:13:23;100969.53;;;15.65;58.21
50684;BME280;36654;45.042;38.994;2023-04-03T14:15:49;100935.84;;;15.38;57.96
50684;BME280;36654;45.042;38.994;2023-04-03T14:18:19;100977.63;;;15.48;58.18
50684;BME280;36654;45.042;38.994;2023-04-03T14:20:47;100951.00;;;15.28;58.73
50684;BME280;36654;45.042;38.994;2023-04-03T14:23:12;100956.16;;;15.64;58.43
50684;BME280;36654;45.042;38.994;2023-04-03T14:25:39;100957.75;;;15.97;57.23
50684;BME280;36654;45.042;38.994;2023-04-03T14:28:18;100918.81;;;15.58;57.48
50684;BME280;36654;45.042;38.994;2023-04-03T14:30:44;100995.31;;;15.77;58.14
50684;BME280;36654;45.042;38.994;2023-04-03T14:33:17;100974.13;;;15.34;58.98